createdAt,value
2018-07-22T00:00:33.564Z,20.30
2018-07-22T00:01:34.070Z,20.30
2018-07-22T00:02:55.077Z,20.37
2018-07-22T00:03:34.094Z,20.33
2018-07-22T00:04:34.062Z,20.27
2018-07-22T00:05:34.065Z,20.25
2018-07-22T00:06:56.569Z,20.30
2018-07-22T00:09:05.945Z,20.37
2018-07-22T00:10:05.955Z,20.33
2018-07-22T00:11:05.952Z,20.34
2018-07-22T00:12:28.451Z,20.30
2018-07-22T00:13:06.448Z,20.27
2018-07-22T00:14:27.449Z,20.31
2018-07-22T00:15:06.459Z,20.26
2018-07-22T00:16:06.955Z,20.22
2018-07-22T00:17:08.404Z,20.19
2018-07-22T00:18:06.964Z,20.22
2018-07-22T00:20:38.472Z,20.25
2018-07-22T00:21:38.478Z,20.26
2018-07-22T00:22:38.480Z,20.26
2018-07-22T00:23:45.482Z,20.23
2018-07-22T00:24:59.980Z,20.26
2018-07-22T00:25:38.979Z,20.20
2018-07-22T00:26:38.981Z,20.19
2018-07-22T00:27:39.480Z,20.23
2018-07-22T00:28:38.715Z,20.19
2018-07-22T00:31:32.545Z,20.19
2018-07-22T00:32:10.898Z,20.20
2018-07-22T00:33:11.552Z,20.17
2018-07-22T00:35:43.301Z,20.19
2018-07-22T00:36:43.307Z,20.13
2018-07-22T00:37:43.306Z,20.13
2018-07-22T00:38:43.807Z,20.07
2018-07-22T00:41:29.180Z,20.04
2018-07-22T00:42:15.188Z,20.13
2018-07-22T00:43:15.188Z,20.10
2018-07-22T00:44:15.692Z,20.07
2018-07-22T00:45:36.694Z,20.08
2018-07-22T00:46:15.696Z,20.04
2018-07-22T00:47:17.667Z,20.07
2018-07-22T00:48:16.188Z,20.13
2018-07-22T00:49:16.196Z,20.07
2018-07-22T00:50:16.196Z,20.08
2018-07-22T00:51:16.188Z,20.10
2018-07-22T00:52:16.690Z,20.07
2018-07-22T00:53:17.687Z,20.10
2018-07-22T00:54:16.689Z,20.10
2018-07-22T00:55:16.692Z,20.17
2018-07-22T00:56:17.194Z,20.19
2018-07-22T00:59:09.605Z,20.10
2018-07-22T00:59:50.023Z,20.16
2018-07-22T01:00:50.524Z,20.16
2018-07-22T01:02:10.509Z,20.23
2018-07-22T01:02:49.067Z,20.12
2018-07-22T01:03:49.068Z,20.19
2018-07-22T01:06:23.271Z,20.16
2018-07-22T01:07:20.838Z,20.17
2018-07-22T01:08:20.838Z,20.16
2018-07-22T01:09:21.347Z,20.25
2018-07-22T01:10:20.599Z,20.25
2018-07-22T01:11:21.338Z,20.26
2018-07-22T01:12:21.337Z,20.25
2018-07-22T01:13:44.838Z,20.27
2018-07-22T01:14:21.838Z,20.23
2018-07-22T01:15:21.842Z,20.25
2018-07-22T01:16:21.844Z,20.22
2018-07-22T01:17:22.339Z,20.25
2018-07-22T01:18:43.339Z,20.19
2018-07-22T01:19:22.342Z,20.20
2018-07-22T01:20:22.348Z,20.08
2018-07-22T01:22:54.132Z,20.08
2018-07-22T01:23:55.096Z,20.10
2018-07-22T01:24:54.140Z,20.12
2018-07-22T01:25:54.645Z,20.05
2018-07-22T01:26:54.647Z,20.16
2018-07-22T01:27:54.640Z,20.01
2018-07-22T01:28:54.639Z,20.13
2018-07-22T01:31:49.328Z,20.07
2018-07-22T01:32:26.395Z,20.08
2018-07-22T01:33:47.395Z,20.05
2018-07-22T01:34:26.893Z,20.15
2018-07-22T01:35:50.830Z,20.10
2018-07-22T01:36:26.902Z,20.15
2018-07-22T01:37:26.895Z,20.16
2018-07-22T01:40:00.102Z,20.04
2018-07-22T01:41:00.670Z,20.08
2018-07-22T01:41:58.672Z,20.01
2018-07-22T01:43:20.230Z,20.04
2018-07-22T01:43:58.418Z,20.07
2018-07-22T01:44:59.168Z,20.08
2018-07-22T01:45:59.169Z,20.15
2018-07-22T01:47:20.669Z,20.16
2018-07-22T01:47:59.670Z,20.12
2018-07-22T01:49:01.106Z,20.01
2018-07-22T01:49:59.670Z,20.04
2018-07-22T01:52:31.421Z,20.07
2018-07-22T01:53:31.431Z,20.05
2018-07-22T01:54:31.435Z,20.12
2018-07-22T01:55:52.927Z,20.10
2018-07-22T01:56:31.926Z,20.07
2018-07-22T01:57:31.936Z,20.10
2018-07-22T01:58:31.927Z,20.13
2018-07-22T01:59:32.386Z,20.08
2018-07-22T02:00:53.428Z,20.12
2018-07-22T02:01:32.446Z,20.05
2018-07-22T02:02:32.422Z,20.07
2018-07-22T02:03:34.435Z,20.04
2018-07-22T02:07:37.092Z,20.10
2018-07-22T02:08:35.644Z,19.97
2018-07-22T02:09:42.137Z,20.07
2018-07-22T02:10:59.570Z,19.98
2018-07-22T02:11:39.071Z,20.00
2018-07-22T02:12:41.571Z,20.01
2018-07-22T02:13:57.646Z,20.00
2018-07-22T02:14:58.637Z,19.98
2018-07-22T02:15:36.640Z,20.00
2018-07-22T02:16:38.070Z,20.05
2018-07-22T02:17:59.593Z,20.04
2018-07-22T02:19:04.138Z,20.07
2018-07-22T02:20:00.571Z,20.02
2018-07-22T02:20:38.605Z,19.98
2018-07-22T02:21:38.595Z,20.05
2018-07-22T02:22:37.641Z,20.01
2018-07-22T02:25:09.040Z,20.08
2018-07-22T02:26:09.048Z,20.08
2018-07-22T02:27:09.048Z,20.02
2018-07-22T02:28:30.555Z,20.00
2018-07-22T02:29:09.547Z,20.01
2018-07-22T02:30:09.553Z,20.07
2018-07-22T02:31:30.547Z,20.04
2018-07-22T02:32:12.048Z,20.02
2018-07-22T02:33:25.046Z,19.97
2018-07-22T02:34:10.051Z,20.00
2018-07-22T02:35:10.048Z,19.98
2018-07-22T02:36:10.545Z,20.04
2018-07-22T02:37:31.548Z,20.01
2018-07-22T02:38:10.553Z,20.04
2018-07-22T02:39:10.548Z,19.97
2018-07-22T02:40:11.048Z,20.02
2018-07-22T02:41:11.051Z,20.01
2018-07-22T02:42:11.055Z,19.95
2018-07-22T02:43:11.048Z,19.92
2018-07-22T02:44:11.550Z,20.02
2018-07-22T02:45:11.548Z,20.01
2018-07-22T02:46:11.554Z,20.00
2018-07-22T02:47:11.062Z,19.95
2018-07-22T02:48:12.049Z,19.98
2018-07-22T02:49:11.272Z,19.89
2018-07-22T02:50:12.050Z,19.87
2018-07-22T02:51:12.048Z,19.86
2018-07-22T02:52:11.656Z,19.85
2018-07-22T02:53:11.792Z,19.92
2018-07-22T02:57:16.944Z,19.75
2018-07-22T02:58:15.481Z,19.71
2018-07-22T02:59:15.481Z,19.76
2018-07-22T03:02:10.735Z,19.75
2018-07-22T03:03:01.737Z,19.78
2018-07-22T03:05:18.553Z,19.71
2018-07-22T03:06:40.268Z,19.75
2018-07-22T03:07:40.272Z,19.75
2018-07-22T03:08:33.775Z,19.71
2018-07-22T03:09:21.769Z,19.75
2018-07-22T03:10:19.771Z,19.72
2018-07-22T03:11:19.769Z,19.75
2018-07-22T03:12:41.275Z,19.72
2018-07-22T03:13:20.269Z,19.75
2018-07-22T03:14:21.269Z,19.68
2018-07-22T03:15:20.273Z,19.71
2018-07-22T03:16:20.770Z,19.75
2018-07-22T03:17:20.773Z,19.76
2018-07-22T03:18:20.772Z,19.76
2018-07-22T03:19:21.787Z,19.75
2018-07-22T03:20:21.269Z,19.65
2018-07-22T03:21:21.270Z,19.75
2018-07-22T03:22:21.280Z,19.75
2018-07-22T03:23:21.343Z,19.71
2018-07-22T03:25:52.978Z,19.78
2018-07-22T03:26:53.032Z,19.72
2018-07-22T03:27:52.989Z,19.67
2018-07-22T03:31:56.180Z,19.82
2018-07-22T03:32:56.188Z,19.89
2018-07-22T03:33:56.190Z,19.80
2018-07-22T03:41:02.023Z,19.89
2018-07-22T03:42:24.699Z,19.89
2018-07-22T03:43:02.767Z,19.87
2018-07-22T03:44:03.294Z,19.85
2018-07-22T03:46:56.617Z,19.85
2018-07-22T03:47:34.686Z,19.94
2018-07-22T03:50:06.363Z,19.92
2018-07-22T03:51:06.374Z,19.89
2018-07-22T03:52:06.362Z,19.90
2018-07-22T03:53:33.864Z,19.92
2018-07-22T03:57:09.688Z,19.90
2018-07-22T03:58:09.710Z,19.83
2018-07-22T03:59:09.706Z,19.87
2018-07-22T04:00:31.199Z,19.89
2018-07-22T04:01:31.199Z,19.89
2018-07-22T04:02:10.199Z,19.87
2018-07-22T04:03:10.205Z,19.85
2018-07-22T04:04:14.137Z,19.85
2018-07-22T04:05:10.699Z,19.90
2018-07-22T04:06:10.699Z,19.85
2018-07-22T04:07:10.700Z,19.90
2018-07-22T04:08:11.202Z,19.94
2018-07-22T04:09:11.203Z,19.89
2018-07-22T04:10:11.200Z,19.89
2018-07-22T04:11:11.199Z,19.86
2018-07-22T04:12:11.701Z,19.98
2018-07-22T04:13:10.926Z,19.82
2018-07-22T04:14:11.700Z,19.76
2018-07-22T04:15:32.175Z,19.82
2018-07-22T04:16:12.197Z,19.86
2018-07-22T04:17:12.203Z,19.72
2018-07-22T04:18:12.200Z,19.76
2018-07-22T04:19:13.196Z,19.72
2018-07-22T04:20:14.673Z,19.78
2018-07-22T04:21:12.700Z,19.72
2018-07-22T04:22:13.700Z,19.78
2018-07-22T04:23:13.698Z,19.72
2018-07-22T04:24:14.198Z,19.76
2018-07-22T04:25:13.240Z,19.78
2018-07-22T04:26:15.201Z,19.82
2018-07-22T04:27:13.200Z,19.79
2018-07-22T04:28:13.700Z,19.78
2018-07-22T04:29:13.705Z,19.82
2018-07-22T04:30:13.700Z,19.85
2018-07-22T04:31:13.699Z,19.86
2018-07-22T04:33:44.738Z,19.83
2018-07-22T04:34:45.484Z,19.78
2018-07-22T04:35:45.497Z,19.79
2018-07-22T04:36:46.918Z,19.92
2018-07-22T04:38:06.983Z,19.87
2018-07-22T04:38:45.209Z,19.92
2018-07-22T04:39:45.983Z,19.83
2018-07-22T04:40:46.015Z,19.87
2018-07-22T04:41:52.484Z,19.80
2018-07-22T04:43:07.484Z,19.89
2018-07-22T04:43:46.484Z,19.83
2018-07-22T04:44:46.480Z,19.85
2018-07-22T04:45:46.984Z,19.82
2018-07-22T04:46:46.984Z,19.80
2018-07-22T04:47:46.985Z,19.78
2018-07-22T04:48:46.985Z,19.80
2018-07-22T04:49:47.484Z,19.85
2018-07-22T04:50:47.484Z,19.78
2018-07-22T04:51:47.488Z,19.76
2018-07-22T04:52:47.483Z,19.72
2018-07-22T04:53:47.089Z,19.72
2018-07-22T04:54:48.981Z,19.71
2018-07-22T04:56:08.985Z,19.75
2018-07-22T04:56:47.984Z,19.60
2018-07-22T04:58:11.460Z,19.55
2018-07-22T05:00:40.836Z,19.68
2018-07-22T05:01:19.844Z,19.71
2018-07-22T05:02:19.328Z,19.68
2018-07-22T05:03:34.343Z,19.71
2018-07-22T05:04:42.275Z,19.75
2018-07-22T05:05:20.343Z,19.72
2018-07-22T05:06:41.343Z,19.70
2018-07-22T05:07:41.848Z,19.65
2018-07-22T05:08:20.077Z,19.68
2018-07-22T05:09:41.843Z,19.62
2018-07-22T05:10:20.844Z,19.55
2018-07-22T05:11:21.344Z,19.64
2018-07-22T05:12:21.357Z,19.57
2018-07-22T05:13:21.352Z,19.65
2018-07-22T05:14:21.343Z,19.60
2018-07-22T05:15:20.943Z,19.62
2018-07-22T05:16:21.844Z,19.49
2018-07-22T05:17:21.850Z,19.50
2018-07-22T05:18:21.839Z,19.53
2018-07-22T05:19:23.342Z,19.53
2018-07-22T05:20:22.345Z,19.62
2018-07-22T05:21:21.695Z,19.57
2018-07-22T05:22:22.345Z,19.55
2018-07-22T05:24:54.133Z,19.60
2018-07-22T05:25:54.142Z,19.68
2018-07-22T05:26:54.135Z,19.71
2018-07-22T05:28:15.646Z,19.70
2018-07-22T05:29:21.638Z,19.71
2018-07-22T05:30:15.639Z,19.67
2018-07-22T05:30:54.636Z,19.72
2018-07-22T05:33:27.832Z,19.71
2018-07-22T05:34:26.399Z,19.75
2018-07-22T05:35:26.399Z,19.72
2018-07-22T05:36:47.899Z,19.75
2018-07-22T05:37:26.902Z,19.82
2018-07-22T05:38:32.900Z,19.79
2018-07-22T05:39:26.905Z,19.80
2018-07-22T05:40:27.399Z,19.82
2018-07-22T05:41:27.401Z,19.82
2018-07-22T05:42:27.403Z,19.83
2018-07-22T05:43:27.408Z,19.76
2018-07-22T05:44:29.399Z,19.87
2018-07-22T05:45:29.332Z,19.90
2018-07-22T05:46:27.899Z,19.86
2018-07-22T05:47:27.901Z,19.83
2018-07-22T05:48:34.401Z,19.82
2018-07-22T05:49:28.405Z,19.82
2018-07-22T05:50:28.397Z,19.76
2018-07-22T05:51:30.877Z,19.68
2018-07-22T05:52:28.905Z,19.76
2018-07-22T05:53:34.901Z,19.68
2018-07-22T05:54:49.907Z,19.78
2018-07-22T05:55:49.903Z,19.67
2018-07-22T05:56:49.487Z,19.67
2018-07-22T05:57:29.400Z,19.75
2018-07-22T05:58:51.851Z,19.71
2018-07-22T05:59:30.875Z,19.68
2018-07-22T06:00:49.999Z,19.79
2018-07-22T06:01:50.899Z,19.76
2018-07-22T06:02:31.379Z,19.79
2018-07-22T06:03:29.904Z,19.72
2018-07-22T06:04:29.507Z,19.70
2018-07-22T06:05:30.400Z,19.71
2018-07-22T06:06:31.399Z,19.70
2018-07-22T06:07:30.400Z,19.78
2018-07-22T06:08:30.901Z,19.78
2018-07-22T06:09:30.122Z,19.80
2018-07-22T06:10:31.903Z,19.82
2018-07-22T06:11:30.900Z,19.86
2018-07-22T06:12:31.401Z,19.90
2018-07-22T06:13:32.883Z,20.00
2018-07-22T06:14:31.398Z,19.87
2018-07-22T06:15:31.400Z,19.87
2018-07-22T06:16:33.380Z,20.02
2018-07-22T06:17:33.334Z,20.05
2018-07-22T06:18:31.896Z,20.00
2018-07-22T06:19:33.880Z,20.01
2018-07-22T06:20:31.356Z,20.04
2018-07-22T06:21:32.400Z,20.04
2018-07-22T06:22:32.401Z,20.02
2018-07-22T06:23:34.483Z,20.02
2018-07-22T06:24:53.403Z,20.05
2018-07-22T06:25:32.012Z,20.10
2018-07-22T06:29:57.656Z,20.17
2018-07-22T06:30:35.690Z,20.22
2018-07-22T06:31:35.691Z,20.23
2018-07-22T06:32:57.191Z,20.20
2018-07-22T06:33:42.191Z,20.22
2018-07-22T06:34:57.200Z,20.17
2018-07-22T06:35:36.191Z,20.30
2018-07-22T06:36:36.752Z,20.31
2018-07-22T06:37:57.700Z,20.27
2018-07-22T06:40:08.068Z,20.31
2018-07-22T06:41:08.116Z,20.23
2018-07-22T06:42:08.076Z,20.22
2018-07-22T06:43:08.582Z,20.30
2018-07-22T06:44:08.576Z,20.25
2018-07-22T06:45:08.575Z,20.30
2018-07-22T06:46:29.592Z,20.42
2018-07-22T06:47:11.076Z,20.38
2018-07-22T06:48:30.075Z,20.41
2018-07-22T06:50:40.579Z,20.42
2018-07-22T06:51:40.590Z,20.35
2018-07-22T06:52:40.583Z,20.44
2018-07-22T06:57:04.771Z,20.35
2018-07-22T06:58:04.778Z,20.37
2018-07-22T06:58:43.776Z,20.51
2018-07-22T06:59:58.277Z,20.56
2018-07-22T07:00:44.318Z,20.50
2018-07-22T07:02:05.293Z,20.50
2018-07-22T07:02:44.278Z,20.48
2018-07-22T07:03:44.777Z,20.58
2018-07-22T07:05:04.992Z,20.61
2018-07-22T07:05:44.791Z,20.54
2018-07-22T07:06:44.777Z,20.57
2018-07-22T07:07:44.777Z,20.54
2018-07-22T07:08:45.280Z,20.54
2018-07-22T07:09:45.277Z,20.69
2018-07-22T07:10:45.272Z,20.78
2018-07-22T07:11:45.277Z,20.72
2018-07-22T07:12:45.805Z,20.73
2018-07-22T07:13:45.032Z,20.68
2018-07-22T07:14:45.780Z,20.78
2018-07-22T07:15:45.780Z,20.87
2018-07-22T07:16:47.710Z,20.75
2018-07-22T07:17:46.278Z,20.82
2018-07-22T07:18:46.285Z,20.73
2018-07-22T07:19:46.281Z,20.73
2018-07-22T07:20:46.796Z,20.79
2018-07-22T07:21:47.776Z,20.81
2018-07-22T07:22:46.776Z,20.78
2018-07-22T07:23:46.776Z,20.81
2018-07-22T07:24:47.278Z,20.91
2018-07-22T07:26:08.282Z,20.93
2018-07-22T07:27:01.279Z,20.87
2018-07-22T07:27:47.279Z,20.88
2018-07-22T07:29:08.778Z,20.96
2018-07-22T07:29:47.779Z,20.93
2018-07-22T07:30:47.780Z,20.96
2018-07-22T07:31:47.780Z,20.98
2018-07-22T07:32:48.279Z,20.98
2018-07-22T07:33:48.277Z,20.97
2018-07-22T07:34:47.628Z,21.12
2018-07-22T07:35:48.282Z,21.08
2018-07-22T07:37:11.778Z,21.11
2018-07-22T07:38:09.779Z,21.15
2018-07-22T07:38:48.779Z,21.12
2018-07-22T07:39:48.779Z,21.06
2018-07-22T07:42:26.557Z,21.22
2018-07-22T07:43:34.556Z,21.18
2018-07-22T07:44:20.556Z,21.09
2018-07-22T07:45:21.062Z,21.15
2018-07-22T07:46:42.060Z,21.21
2018-07-22T07:47:21.057Z,21.28
2018-07-22T07:48:21.056Z,21.22
2018-07-22T07:49:44.558Z,21.22
2018-07-22T07:50:20.785Z,21.34
2018-07-22T07:51:22.555Z,21.33
2018-07-22T07:52:21.032Z,21.33
2018-07-22T07:53:23.062Z,21.28
2018-07-22T07:55:53.439Z,21.38
2018-07-22T07:56:53.445Z,21.40
2018-07-22T07:57:53.453Z,21.45
2018-07-22T07:58:53.952Z,21.49
2018-07-22T07:59:53.174Z,21.55
2018-07-22T08:00:53.948Z,21.53
2018-07-22T08:01:53.949Z,21.55
2018-07-22T08:04:26.236Z,21.52
2018-07-22T08:05:48.230Z,21.52
2018-07-22T08:06:26.230Z,21.43
2018-07-22T08:07:32.750Z,21.56
2018-07-22T08:08:26.737Z,21.55
2018-07-22T08:09:26.732Z,21.56
2018-07-22T08:10:26.733Z,21.63
2018-07-22T08:14:29.934Z,21.66
2018-07-22T08:15:29.940Z,21.58
2018-07-22T08:16:30.000Z,21.61
2018-07-22T08:19:00.962Z,21.68
2018-07-22T08:20:01.633Z,21.74
2018-07-22T08:21:22.673Z,21.59
2018-07-22T08:22:03.136Z,21.71
2018-07-22T08:23:02.132Z,21.79
2018-07-22T08:24:23.149Z,21.82
2018-07-22T08:25:02.133Z,21.90
2018-07-22T08:26:02.669Z,21.85
2018-07-22T08:27:04.635Z,21.93
2018-07-22T08:28:02.636Z,21.96
2018-07-22T08:29:02.628Z,22.01
2018-07-22T08:31:34.385Z,22.20
2018-07-22T08:32:55.388Z,22.12
2018-07-22T08:33:33.996Z,22.02
2018-07-22T08:34:36.323Z,22.14
2018-07-22T08:35:34.892Z,22.21
2018-07-22T08:36:34.892Z,22.23
2018-07-22T08:37:35.392Z,22.19
2018-07-22T08:38:34.619Z,22.20
2018-07-22T08:39:35.393Z,22.24
2018-07-22T08:40:35.392Z,22.24
2018-07-22T08:41:57.891Z,22.23
2018-07-22T08:44:28.298Z,22.20
2018-07-22T08:46:59.816Z,22.29
2018-07-22T08:47:38.832Z,22.26
2018-07-22T08:48:39.317Z,22.15
2018-07-22T08:51:31.579Z,22.21
2018-07-22T08:52:31.587Z,22.20
2018-07-22T08:53:10.646Z,22.24
2018-07-22T08:55:42.400Z,22.14
2018-07-22T08:56:42.376Z,22.20
2018-07-22T08:57:42.381Z,22.20
2018-07-22T08:58:42.877Z,22.17
2018-07-22T08:59:42.877Z,22.15
2018-07-22T09:00:42.881Z,22.27
2018-07-22T09:03:34.754Z,22.41
2018-07-22T09:04:15.505Z,22.33
2018-07-22T09:05:36.980Z,22.46
2018-07-22T09:06:15.493Z,22.38
2018-07-22T09:08:46.354Z,22.48
2018-07-22T09:09:46.362Z,22.63
2018-07-22T09:10:46.363Z,22.61
2018-07-22T09:16:21.774Z,22.75
2018-07-22T09:17:21.781Z,22.74
2018-07-22T09:18:21.781Z,22.78
2018-07-22T09:19:22.282Z,22.76
2018-07-22T09:20:22.282Z,22.84
2018-07-22T09:21:22.283Z,22.79
2018-07-22T09:22:22.282Z,22.74
2018-07-22T09:23:22.782Z,22.72
2018-07-22T09:24:22.783Z,22.76
2018-07-22T09:25:22.789Z,22.78
2018-07-22T09:26:22.782Z,22.82
2018-07-22T09:27:25.282Z,22.86
2018-07-22T09:29:54.676Z,22.88
2018-07-22T09:30:56.117Z,22.88
2018-07-22T09:32:16.610Z,22.93
2018-07-22T09:32:54.681Z,23.01
2018-07-22T09:33:55.177Z,23.00
2018-07-22T09:35:01.177Z,22.96
2018-07-22T09:35:55.246Z,22.94
2018-07-22T09:36:55.186Z,23.04
2018-07-22T09:38:16.679Z,23.12
2018-07-22T09:39:03.162Z,23.15
2018-07-22T09:39:57.679Z,23.01
2018-07-22T09:40:55.682Z,23.19
2018-07-22T09:42:17.174Z,23.16
2018-07-22T09:43:19.181Z,23.22
2018-07-22T09:44:17.221Z,23.19
2018-07-22T09:44:59.155Z,23.19
2018-07-22T09:45:56.718Z,23.16
2018-07-22T09:46:56.689Z,23.31
2018-07-22T09:47:56.679Z,23.37
2018-07-22T09:48:56.682Z,23.41
2018-07-22T09:49:56.680Z,23.39
2018-07-22T09:50:57.180Z,23.45
2018-07-22T09:51:57.178Z,23.42
2018-07-22T09:52:57.185Z,23.49
2018-07-22T09:53:57.185Z,23.49
2018-07-22T09:54:56.783Z,23.45
2018-07-22T09:55:57.680Z,23.50
2018-07-22T09:57:11.679Z,23.44
2018-07-22T09:57:57.678Z,23.41
2018-07-22T10:00:31.523Z,23.35
2018-07-22T10:01:31.506Z,23.45
2018-07-22T10:02:32.431Z,23.45
2018-07-22T10:03:50.997Z,23.52
2018-07-22T10:06:01.414Z,23.64
2018-07-22T10:07:01.420Z,23.64
2018-07-22T10:08:23.417Z,23.67
2018-07-22T10:09:01.918Z,23.62
2018-07-22T10:10:01.925Z,23.69
2018-07-22T10:11:22.929Z,23.71
2018-07-22T10:12:01.932Z,23.68
2018-07-22T10:13:23.419Z,23.71
2018-07-22T10:14:23.454Z,23.86
2018-07-22T10:16:33.945Z,24.00
2018-07-22T10:17:33.460Z,24.08
2018-07-22T10:18:35.453Z,24.02
2018-07-22T10:19:34.453Z,24.09
2018-07-22T10:20:56.886Z,24.09
2018-07-22T10:21:34.455Z,24.21
2018-07-22T10:22:36.950Z,24.29
2018-07-22T10:23:34.953Z,24.37
2018-07-22T10:24:55.954Z,24.37
2018-07-22T10:27:06.617Z,24.39
2018-07-22T10:28:06.633Z,24.33
2018-07-22T10:29:06.626Z,24.27
2018-07-22T10:31:38.392Z,24.23
2018-07-22T10:32:38.400Z,24.15
2018-07-22T10:33:38.947Z,24.06
2018-07-22T10:38:02.786Z,24.19
2018-07-22T10:40:13.304Z,24.41
2018-07-22T10:41:13.321Z,24.41
2018-07-22T10:42:14.312Z,24.51
2018-07-22T10:43:13.840Z,24.55
2018-07-22T10:44:13.811Z,24.60
2018-07-22T10:45:34.814Z,24.74
2018-07-22T10:46:13.811Z,24.79
2018-07-22T10:47:14.308Z,24.80
2018-07-22T10:48:14.311Z,24.90
2018-07-22T10:49:14.311Z,24.99
2018-07-22T10:50:14.311Z,24.97
2018-07-22T10:51:14.811Z,24.98
2018-07-22T10:52:14.808Z,24.92
2018-07-22T10:53:16.293Z,24.93
2018-07-22T10:54:14.818Z,25.02
2018-07-22T10:56:46.600Z,25.04
2018-07-22T10:57:46.606Z,25.09
2018-07-22T10:58:46.606Z,25.31
2018-07-22T10:59:47.122Z,25.24
2018-07-22T11:00:47.106Z,25.30
2018-07-22T11:01:47.110Z,25.29
2018-07-22T11:02:47.106Z,25.44
2018-07-22T11:04:08.608Z,25.36
2018-07-22T11:04:47.607Z,25.46
2018-07-22T11:05:47.609Z,25.38
2018-07-22T11:06:47.616Z,25.31
2018-07-22T11:11:12.357Z,25.14
2018-07-22T11:12:11.703Z,25.09
2018-07-22T11:13:12.299Z,25.14
2018-07-22T11:14:11.926Z,24.99
2018-07-22T11:16:24.592Z,24.90
2018-07-22T11:17:23.161Z,24.87
2018-07-22T11:18:44.160Z,24.89
2018-07-22T11:19:46.094Z,24.97
2018-07-22T11:22:17.994Z,25.14
2018-07-22T11:22:55.009Z,25.19
2018-07-22T11:23:55.006Z,25.16
2018-07-22T11:24:55.506Z,25.27
2018-07-22T11:26:16.506Z,25.30
2018-07-22T11:26:55.506Z,25.22
2018-07-22T11:27:55.506Z,25.26
2018-07-22T11:28:59.032Z,25.29
2018-07-22T11:30:19.007Z,25.27
2018-07-22T11:31:17.007Z,25.34
2018-07-22T11:31:55.499Z,25.26
2018-07-22T11:33:18.462Z,25.27
2018-07-22T11:34:17.510Z,25.27
2018-07-22T11:34:56.546Z,25.29
2018-07-22T11:35:56.609Z,25.24
2018-07-22T11:36:57.003Z,25.24
2018-07-22T11:38:18.046Z,25.31
2018-07-22T11:40:30.472Z,25.53
2018-07-22T11:41:52.515Z,25.60
2018-07-22T11:42:49.541Z,25.71
2018-07-22T11:43:28.146Z,26.03
2018-07-22T11:44:29.040Z,26.21
2018-07-22T11:45:50.040Z,26.42
2018-07-22T11:46:29.040Z,26.69
2018-07-22T11:49:22.298Z,26.81
2018-07-22T11:50:24.330Z,26.97
2018-07-22T11:51:01.305Z,27.11
2018-07-22T11:52:01.805Z,27.34
2018-07-22T11:54:33.701Z,27.52
2018-07-22T11:55:35.213Z,27.49
2018-07-22T11:56:33.708Z,27.43
2018-07-22T11:59:05.353Z,27.65
2018-07-22T12:00:11.349Z,27.71
2018-07-22T12:01:04.858Z,27.77
2018-07-22T12:02:11.861Z,27.66
2018-07-22T12:06:08.696Z,27.58
2018-07-22T12:07:08.707Z,27.53
2018-07-22T12:08:09.702Z,27.45
2018-07-22T12:09:09.211Z,27.39
2018-07-22T12:10:33.201Z,27.45
2018-07-22T12:11:09.203Z,27.43
2018-07-22T12:12:11.737Z,27.62
2018-07-22T12:13:09.704Z,27.62
2018-07-22T12:14:09.706Z,27.76
2018-07-22T12:15:09.703Z,27.91
2018-07-22T12:16:09.703Z,28.23
2018-07-22T12:17:12.205Z,28.38
2018-07-22T12:18:31.203Z,28.35
2018-07-22T12:19:11.202Z,28.36
2018-07-22T12:20:31.205Z,28.46
2018-07-22T12:21:10.707Z,28.67
2018-07-22T12:22:11.669Z,28.83
2018-07-22T12:23:10.713Z,29.05
2018-07-22T12:24:11.204Z,29.05
2018-07-22T12:25:11.204Z,29.20
2018-07-22T12:26:11.204Z,29.36
2018-07-22T12:27:11.203Z,29.51
2018-07-22T12:28:11.262Z,29.62
2018-07-22T12:29:11.746Z,29.45
2018-07-22T12:30:10.959Z,29.60
2018-07-22T12:31:11.704Z,29.79
2018-07-22T12:32:15.162Z,30.08
2018-07-22T12:33:12.211Z,30.36
2018-07-22T12:34:12.213Z,30.30
2018-07-22T12:35:12.204Z,30.32
2018-07-22T12:36:12.204Z,30.01
2018-07-22T12:37:11.810Z,29.79
2018-07-22T12:38:12.702Z,29.58
2018-07-22T12:39:12.707Z,29.35
2018-07-22T12:40:12.713Z,29.10
2018-07-22T12:41:13.205Z,28.85
2018-07-22T12:42:12.438Z,28.73
2018-07-22T12:43:34.205Z,28.67
2018-07-22T12:44:13.213Z,28.57
2018-07-22T12:45:12.820Z,28.64
2018-07-22T12:46:13.704Z,28.61
2018-07-22T12:47:13.708Z,28.57
2018-07-22T12:48:13.705Z,29.07
2018-07-22T12:49:35.203Z,29.57
2018-07-22T12:50:35.638Z,29.74
2018-07-22T12:52:46.911Z,30.59
2018-07-22T12:53:46.966Z,30.67
2018-07-22T12:54:46.911Z,31.04
2018-07-22T12:55:47.411Z,30.66
2018-07-22T12:56:47.411Z,30.79
2018-07-22T12:57:47.411Z,30.81
2018-07-22T12:58:51.360Z,31.23
2018-07-22T12:59:47.913Z,31.42
2018-07-22T13:00:49.912Z,31.64
2018-07-22T13:01:47.945Z,31.91
2018-07-22T13:03:08.437Z,31.98
2018-07-22T13:03:48.410Z,31.49
2018-07-22T13:04:49.846Z,31.41
2018-07-22T13:05:48.412Z,31.19
2018-07-22T13:06:48.416Z,31.28
2018-07-22T13:07:48.466Z,31.42
2018-07-22T13:08:54.909Z,31.59
2018-07-22T13:12:51.787Z,32.25
2018-07-22T13:13:51.811Z,32.43
2018-07-22T13:14:51.794Z,32.71
2018-07-22T13:16:13.295Z,32.77
2018-07-22T13:16:53.227Z,33.18
2018-07-22T13:17:52.298Z,33.06
2018-07-22T13:18:52.316Z,33.09
2018-07-22T13:20:13.796Z,33.45
2018-07-22T13:20:54.270Z,33.41
2018-07-22T13:21:52.805Z,33.43
2018-07-22T13:22:52.792Z,33.44
2018-07-22T13:26:24.688Z,33.71
2018-07-22T13:27:24.748Z,33.89
2018-07-22T13:28:24.699Z,34.00
2018-07-22T13:31:17.494Z,34.19
2018-07-22T13:32:17.501Z,34.18
2018-07-22T13:32:55.989Z,34.31
2018-07-22T13:35:50.202Z,34.69
2018-07-22T13:36:29.205Z,34.93
2018-07-22T13:37:30.202Z,35.09
2018-07-22T13:38:34.848Z,34.94
2018-07-22T13:39:30.783Z,34.80
2018-07-22T13:40:28.770Z,34.71
2018-07-22T13:41:49.785Z,34.26
2018-07-22T13:44:00.560Z,34.31
2018-07-22T13:45:21.641Z,34.24
2018-07-22T13:46:22.567Z,33.87
2018-07-22T13:47:01.077Z,33.72
2018-07-22T13:48:01.034Z,33.41
2018-07-22T13:49:01.067Z,33.07
2018-07-22T13:50:01.070Z,32.72
2018-07-22T13:51:22.567Z,32.66
2018-07-22T13:52:22.567Z,32.36
2018-07-22T13:53:23.565Z,32.10
2018-07-22T13:54:01.567Z,32.54
2018-07-22T13:55:01.170Z,32.83
2018-07-22T13:56:23.068Z,32.88
2018-07-22T13:57:22.450Z,33.17
2018-07-22T13:58:02.073Z,33.06
2018-07-22T13:59:02.568Z,32.56
2018-07-22T14:01:33.975Z,33.24
2018-07-22T14:02:33.982Z,33.59
2018-07-22T14:03:33.990Z,33.53
2018-07-22T14:04:34.483Z,33.71
2018-07-22T14:05:55.483Z,33.87
2018-07-22T14:06:35.936Z,34.15
2018-07-22T14:07:34.493Z,34.64
2018-07-22T14:08:34.160Z,34.86
2018-07-22T14:09:34.983Z,35.07
2018-07-22T14:10:34.988Z,35.42
2018-07-22T14:11:34.983Z,35.56
2018-07-22T14:12:57.445Z,35.58
2018-07-22T14:13:34.689Z,35.92
2018-07-22T14:14:56.483Z,35.99
2018-07-22T14:15:35.536Z,36.13
2018-07-22T14:18:07.272Z,36.13
2018-07-22T14:19:07.274Z,35.76
2018-07-22T14:20:07.272Z,35.76
2018-07-22T14:21:07.772Z,35.84
2018-07-22T14:22:07.772Z,35.96
2018-07-22T14:23:07.777Z,36.23
2018-07-22T14:24:29.272Z,35.81
2018-07-22T14:25:22.271Z,35.31
2018-07-22T14:26:30.268Z,35.46
2018-07-22T14:27:10.271Z,35.31
2018-07-22T14:28:08.325Z,35.09
2018-07-22T14:29:08.777Z,35.02
2018-07-22T14:30:31.771Z,35.37
2018-07-22T14:31:08.771Z,35.36
2018-07-22T14:32:08.771Z,35.20
2018-07-22T14:33:10.233Z,34.21
2018-07-22T14:34:09.303Z,33.63
2018-07-22T14:35:30.272Z,33.50
2018-07-22T14:36:30.270Z,33.20
2018-07-22T14:37:11.768Z,32.91
2018-07-22T14:38:11.242Z,32.68
2018-07-22T14:39:19.708Z,32.46
2018-07-22T14:40:09.778Z,32.39
2018-07-22T14:41:10.271Z,32.17
2018-07-22T14:43:41.677Z,31.37
2018-07-22T14:44:41.683Z,31.10
2018-07-22T14:46:02.707Z,31.01
2018-07-22T14:47:02.314Z,30.90
2018-07-22T14:48:03.190Z,30.97
2018-07-22T14:48:42.184Z,31.04
2018-07-22T14:49:42.188Z,31.01
2018-07-22T14:50:42.684Z,31.04
2018-07-22T14:52:02.908Z,30.98
2018-07-22T14:52:42.684Z,31.00
2018-07-22T14:53:42.713Z,30.82
2018-07-22T14:56:14.465Z,30.73
2018-07-22T14:57:35.472Z,30.57
2018-07-22T14:58:14.478Z,30.67
2018-07-22T15:00:46.257Z,30.68
2018-07-22T15:01:46.288Z,30.38
2018-07-22T15:02:45.776Z,30.34
2018-07-22T15:03:45.885Z,30.40
2018-07-22T15:05:07.772Z,30.73
2018-07-22T15:05:46.766Z,30.54
2018-07-22T15:06:46.764Z,30.28
2018-07-22T15:10:49.995Z,30.01